Airfield :
LOGIN :

Register | Disclaimer

   EN    FR    IT 

 










Legend :    VFR   Marginal VFR   IFR   Intensive IFR   Very Intensive IFR
Visi :
Ceiling :
>= 8 km
>= 3000ft
5 to 8 km
1000 to 3000 ft
1500m to 5 km
500 to 1000 ft
800 to 1500m
200 to 500 ft
< 800m
< 200 ft
Symbols :   Thunderstorms  Fog  Heavy snow  Heavy precipitations  Wind > 20 kt
SIGMETs :     Misc.  Thunderstorms  Icing  Turbulence  Mountain Waves  Volcanic Ashes







- Airport Elevation : 610 ft
- IATA code : VXO


ESMX - Växjö Kronoberg

CURRENT METAR :
  • 180850Z 17009KT 4300 BR OVC003 05/05 Q1017

EXPIRED METARs :
  • 180820Z 17009KT 3100 BR OVC002 05/05 Q1017
  • 180750Z 17008KT 1700 R01/1700U R19/2000N BR OVC002 05/05 Q1017
  • 180720Z 17009KT 2000 BR OVC002 05/05 Q1017
  • 180650Z 18009KT 2400 BR OVC002 05/05 Q1017
  • 180620Z 17009KT 3500 BR OVC002 05/05 Q1017

TAF TAF ESMX
Valid from the 18 at 09:00 until the 18 at 18:00 UTC


180830Z 1809/1818 18008KT 3000 OVC002
BECMG 1809/1811 9999 BKN006
BECMG 1812/1814 SCT006
BECMG 1817/1818 3000 BR BKN010
No reported NOTAMs for that airfield.



MET'MAP, your aeronautical weather chart ! - Copyright ORBIFLY December 2007 - Disclaimer

ORBIFLY MET'MAP TEAM :

Programming & Development : Alexandra Zaïnal
Concept & Development : Baudouin d'Aumeries
Co-Development & Prog : Marc-Olivier Méhu
Technical & hardware support : Manuel Goepfert

Contact : metmap@orbifly.com




SOURCES & CREDITS :

   NOAA